SWA3870 TJSJ-KMCO
Flight info
| Callsign | SWA3870 |
|---|---|
| Flight time | 2h 29m |
| Altitude | FL360 |
| Route | ACONY3 SAPPO Y280 OCTAL MUNGI1 |
| Aircraft | B737/M-SDE2E3FGHIRWXY/LB1 |
Departure
| Time | 2026-04-25 19:21 |
|---|---|
| Airport | Luis Munoz Marin International Airport (TJSJ) |
Arrival
| Time | 2026-04-25 21:50 |
|---|---|
| Airport | Orlando International Airport (KMCO) |
| Time | Latitude | Longitude | Altitude | Speed | Heading |
|---|---|---|---|---|---|
| 2026-04-25 18:59 | 18.43695 | -66.00289 | 20 ft | 0 kts | 245° |
| 2026-04-25 19:12 | 18.43699 | -66.00279 | 20 ft | 2 kts | 245° |
| 2026-04-25 19:12 | 18.43707 | -66.00262 | 20 ft | 3 kts | 245° |
| 2026-04-25 19:12 | 18.43715 | -66.00243 | 20 ft | 3 kts | 245° |
| 2026-04-25 19:12 | 18.43724 | -66.00223 | 20 ft | 3 kts | 245° |
| 2026-04-25 19:13 | 18.43733 | -66.00204 | 20 ft | 3 kts | 245° |
| 2026-04-25 19:13 | 18.43741 | -66.00184 | 20 ft | 3 kts | 245° |
| 2026-04-25 19:13 | 18.43747 | -66.00172 | 20 ft | 0 kts | 245° |
| 2026-04-25 19:13 | 18.43744 | -66.00176 | 20 ft | 4 kts | 229° |
| 2026-04-25 19:14 | 18.43693 | -66.00175 | 20 ft | 9 kts | 175° |
| 2026-04-25 19:14 | 18.43654 | -66.00172 | 20 ft | 8 kts | 176° |
| 2026-04-25 19:14 | 18.43608 | -66.00137 | 20 ft | 6 kts | 101° |
| 2026-04-25 19:14 | 18.43604 | -66.00094 | 20 ft | 6 kts | 92° |
| 2026-04-25 19:15 | 18.43603 | -66.00053 | 20 ft | 6 kts | 91° |
| 2026-04-25 19:15 | 18.43602 | -66.00013 | 20 ft | 5 kts | 91° |
| 2026-04-25 19:15 | 18.43601 | -65.99973 | 20 ft | 6 kts | 90° |
| 2026-04-25 19:15 | 18.43601 | -65.99929 | 20 ft | 6 kts | 90° |
| 2026-04-25 19:16 | 18.43601 | -65.99885 | 20 ft | 6 kts | 90° |
| 2026-04-25 19:16 | 18.43601 | -65.99838 | 20 ft | 7 kts | 90° |
| 2026-04-25 19:16 | 18.43601 | -65.99789 | 20 ft | 7 kts | 90° |
| 2026-04-25 19:16 | 18.43601 | -65.99737 | 20 ft | 7 kts | 90° |
| 2026-04-25 19:17 | 18.43601 | -65.99684 | 20 ft | 7 kts | 90° |
| 2026-04-25 19:17 | 18.43601 | -65.99629 | 20 ft | 8 kts | 92° |
| 2026-04-25 19:17 | 18.43586 | -65.99578 | 20 ft | 7 kts | 139° |
| 2026-04-25 19:17 | 18.43539 | -65.99563 | 20 ft | 7 kts | 178° |
| 2026-04-25 19:18 | 18.43496 | -65.99542 | 20 ft | 7 kts | 121° |
| 2026-04-25 19:18 | 18.43488 | -65.99493 | 20 ft | 7 kts | 91° |
| 2026-04-25 19:18 | 18.43488 | -65.99441 | 20 ft | 7 kts | 91° |
| 2026-04-25 19:18 | 18.43487 | -65.99386 | 20 ft | 8 kts | 90° |
| 2026-04-25 19:19 | 18.43488 | -65.99330 | 20 ft | 8 kts | 87° |
| 2026-04-25 19:19 | 18.43490 | -65.99272 | 20 ft | 8 kts | 89° |
| 2026-04-25 19:19 | 18.43490 | -65.99211 | 20 ft | 8 kts | 90° |
| 2026-04-25 19:19 | 18.43491 | -65.99170 | 20 ft | 9 kts | 90° |
| 2026-04-25 19:20 | 18.43478 | -65.99093 | 20 ft | 7 kts | 146° |
| 2026-04-25 19:20 | 18.43432 | -65.99074 | 20 ft | 7 kts | 168° |
| 2026-04-25 19:20 | 18.43383 | -65.99075 | 20 ft | 7 kts | 189° |
| 2026-04-25 19:20 | 18.43356 | -65.99111 | 20 ft | 7 kts | 250° |
| 2026-04-25 19:21 | 18.43350 | -65.99203 | 20 ft | 37 kts | 270° |
| 2026-04-25 19:21 | 18.43360 | -66.00972 | 121 ft | 188 kts | 270° |
| 2026-04-25 19:21 | 18.43376 | -66.02440 | 878 ft | 214 kts | 271° |
| 2026-04-25 19:22 | 18.43548 | -66.04082 | 1491 ft | 237 kts | 286° |
| 2026-04-25 19:22 | 18.44525 | -66.05546 | 1765 ft | 257 kts | 318° |
| 2026-04-25 19:22 | 18.47285 | -66.07798 | 2586 ft | 259 kts | 320° |
| 2026-04-25 19:23 | 18.48662 | -66.09000 | 3802 ft | 258 kts | 320° |
| 2026-04-25 19:23 | 18.51408 | -66.11409 | 5990 ft | 256 kts | 319° |
| 2026-04-25 19:23 | 18.52775 | -66.12612 | 7022 ft | 257 kts | 317° |
| 2026-04-25 19:24 | 18.54155 | -66.13819 | 7967 ft | 261 kts | 317° |
| 2026-04-25 19:24 | 18.55530 | -66.15022 | 8853 ft | 265 kts | 317° |
| 2026-04-25 19:24 | 18.58437 | -66.17567 | 10362 ft | 284 kts | 320° |
| 2026-04-25 19:25 | 18.61616 | -66.20353 | 11580 ft | 312 kts | 320° |
| 2026-04-25 19:25 | 18.63318 | -66.21845 | 12166 ft | 325 kts | 320° |
| 2026-04-25 19:25 | 18.65087 | -66.23397 | 12734 ft | 339 kts | 320° |
| 2026-04-25 19:26 | 18.66936 | -66.25020 | 13285 ft | 353 kts | 320° |
| 2026-04-25 19:26 | 18.68854 | -66.26703 | 13817 ft | 366 kts | 320° |
| 2026-04-25 19:26 | 18.70817 | -66.28426 | 14435 ft | 375 kts | 320° |
| 2026-04-25 19:26 | 18.72843 | -66.30207 | 15150 ft | 381 kts | 320° |
| 2026-04-25 19:27 | 18.74875 | -66.31993 | 15887 ft | 385 kts | 320° |
| 2026-04-25 19:27 | 18.76251 | -66.33203 | 16386 ft | 388 kts | 320° |
| 2026-04-25 19:27 | 18.79026 | -66.35644 | 17322 ft | 394 kts | 320° |
| 2026-04-25 19:27 | 18.81144 | -66.37509 | 18017 ft | 398 kts | 320° |
| 2026-04-25 19:28 | 18.83265 | -66.39378 | 18673 ft | 402 kts | 320° |
| 2026-04-25 19:28 | 18.85422 | -66.41279 | 19331 ft | 406 kts | 320° |
| 2026-04-25 19:28 | 18.87514 | -66.43125 | 19941 ft | 410 kts | 320° |
| 2026-04-25 19:28 | 18.89709 | -66.45066 | 20553 ft | 414 kts | 320° |
| 2026-04-25 19:29 | 18.91878 | -66.47081 | 21151 ft | 417 kts | 317° |
| 2026-04-25 19:29 | 18.94013 | -66.49153 | 21695 ft | 421 kts | 317° |
| 2026-04-25 19:29 | 18.96087 | -66.51198 | 22220 ft | 424 kts | 317° |
| 2026-04-25 19:29 | 18.98237 | -66.53346 | 22744 ft | 428 kts | 316° |
| 2026-04-25 19:30 | 19.00404 | -66.55531 | 23234 ft | 431 kts | 316° |
| 2026-04-25 19:30 | 19.02574 | -66.57722 | 23728 ft | 434 kts | 316° |
| 2026-04-25 19:30 | 19.04756 | -66.59935 | 24176 ft | 438 kts | 315° |
| 2026-04-25 19:30 | 19.06858 | -66.62251 | 24611 ft | 440 kts | 312° |
| 2026-04-25 19:31 | 19.08887 | -66.64667 | 25026 ft | 443 kts | 311° |
| 2026-04-25 19:31 | 19.10842 | -66.67062 | 25375 ft | 446 kts | 310° |
| 2026-04-25 19:31 | 19.12853 | -66.69567 | 25754 ft | 449 kts | 310° |
| 2026-04-25 19:31 | 19.14853 | -66.72096 | 26121 ft | 451 kts | 310° |
| 2026-04-25 19:32 | 19.16855 | -66.74655 | 26450 ft | 454 kts | 309° |
| 2026-04-25 19:32 | 19.18864 | -66.77229 | 26803 ft | 456 kts | 309° |
| 2026-04-25 19:32 | 19.20870 | -66.79803 | 27120 ft | 458 kts | 309° |
| 2026-04-25 19:32 | 19.22229 | -66.81549 | 27324 ft | 460 kts | 309° |
| 2026-04-25 19:33 | 19.24942 | -66.85035 | 27764 ft | 462 kts | 309° |
| 2026-04-25 19:33 | 19.26977 | -66.87652 | 28057 ft | 465 kts | 309° |
| 2026-04-25 19:33 | 19.29024 | -66.90286 | 28409 ft | 465 kts | 309° |
| 2026-04-25 19:33 | 19.31090 | -66.92946 | 28649 ft | 468 kts | 309° |
| 2026-04-25 19:34 | 19.33160 | -66.95612 | 28913 ft | 470 kts | 309° |
| 2026-04-25 19:34 | 19.35231 | -66.98281 | 29211 ft | 471 kts | 309° |
| 2026-04-25 19:34 | 19.37304 | -67.00954 | 29431 ft | 474 kts | 309° |
| 2026-04-25 19:34 | 19.39405 | -67.03664 | 29680 ft | 476 kts | 309° |
| 2026-04-25 19:35 | 19.41487 | -67.06350 | 29999 ft | 475 kts | 309° |
| 2026-04-25 19:35 | 19.43587 | -67.09062 | 30326 ft | 475 kts | 309° |
| 2026-04-25 19:35 | 19.45675 | -67.11759 | 30646 ft | 474 kts | 309° |
| 2026-04-25 19:35 | 19.47759 | -67.14452 | 30965 ft | 474 kts | 309° |
| 2026-04-25 19:36 | 19.49840 | -67.17142 | 31277 ft | 473 kts | 309° |
| 2026-04-25 19:36 | 19.51909 | -67.19818 | 31581 ft | 472 kts | 309° |
| 2026-04-25 19:36 | 19.53994 | -67.22515 | 31880 ft | 472 kts | 309° |
| 2026-04-25 19:36 | 19.56059 | -67.25189 | 32170 ft | 471 kts | 309° |
| 2026-04-25 19:37 | 19.58136 | -67.27878 | 32458 ft | 471 kts | 309° |
| 2026-04-25 19:37 | 19.60201 | -67.30555 | 32740 ft | 470 kts | 309° |
| 2026-04-25 19:37 | 19.62259 | -67.33223 | 33017 ft | 470 kts | 309° |
| 2026-04-25 19:37 | 19.64326 | -67.35903 | 33290 ft | 469 kts | 309° |
| 2026-04-25 19:38 | 19.66375 | -67.38561 | 33557 ft | 468 kts | 309° |
| 2026-04-25 19:38 | 19.68433 | -67.41233 | 33821 ft | 468 kts | 309° |
| 2026-04-25 19:38 | 19.70493 | -67.43908 | 34079 ft | 467 kts | 309° |
| 2026-04-25 19:38 | 19.72540 | -67.46568 | 34328 ft | 467 kts | 309° |
| 2026-04-25 19:39 | 19.74587 | -67.49228 | 34571 ft | 467 kts | 309° |
| 2026-04-25 19:39 | 19.76630 | -67.51885 | 34810 ft | 466 kts | 309° |
| 2026-04-25 19:39 | 19.78680 | -67.54552 | 35044 ft | 466 kts | 309° |
| 2026-04-25 19:39 | 19.80720 | -67.57206 | 35272 ft | 465 kts | 309° |
| 2026-04-25 19:40 | 19.82725 | -67.59817 | 35491 ft | 465 kts | 309° |
| 2026-04-25 19:40 | 19.84655 | -67.62331 | 35702 ft | 464 kts | 309° |
| 2026-04-25 19:40 | 19.86688 | -67.64981 | 35902 ft | 464 kts | 309° |
| 2026-04-25 19:40 | 19.88722 | -67.67632 | 35972 ft | 464 kts | 309° |
| 2026-04-25 19:41 | 19.92786 | -67.72934 | 36002 ft | 464 kts | 309° |
| 2026-04-25 19:41 | 19.96175 | -67.77361 | 36001 ft | 464 kts | 309° |
| 2026-04-25 19:42 | 20.00902 | -67.83538 | 36001 ft | 464 kts | 309° |
| 2026-04-25 19:42 | 20.04959 | -67.88846 | 36001 ft | 464 kts | 309° |
| 2026-04-25 19:43 | 20.09019 | -67.94161 | 36001 ft | 463 kts | 309° |
| 2026-04-25 19:43 | 20.13071 | -67.99472 | 36001 ft | 464 kts | 309° |
| 2026-04-25 19:44 | 20.17119 | -68.04781 | 36001 ft | 463 kts | 309° |
| 2026-04-25 19:44 | 20.21170 | -68.10100 | 36001 ft | 464 kts | 309° |
| 2026-04-25 19:45 | 20.25220 | -68.15424 | 36001 ft | 464 kts | 309° |
| 2026-04-25 19:45 | 20.29268 | -68.20748 | 36001 ft | 464 kts | 309° |
| 2026-04-25 19:46 | 20.33317 | -68.26078 | 36001 ft | 464 kts | 309° |
| 2026-04-25 19:46 | 20.37360 | -68.31407 | 36001 ft | 464 kts | 309° |
| 2026-04-25 19:47 | 20.41390 | -68.36760 | 36000 ft | 464 kts | 307° |
| 2026-04-25 19:47 | 20.45059 | -68.42400 | 36002 ft | 464 kts | 303° |
| 2026-04-25 19:48 | 20.48559 | -68.48157 | 36001 ft | 464 kts | 302° |
| 2026-04-25 19:48 | 20.51993 | -68.53963 | 36001 ft | 464 kts | 302° |
| 2026-04-25 19:49 | 20.54841 | -68.58799 | 36000 ft | 464 kts | 302° |
| 2026-04-25 19:49 | 20.58836 | -68.65593 | 36001 ft | 464 kts | 302° |
| 2026-04-25 19:50 | 20.63962 | -68.74323 | 36001 ft | 464 kts | 302° |
| 2026-04-25 19:51 | 20.67378 | -68.80150 | 36001 ft | 464 kts | 302° |
| 2026-04-25 19:51 | 20.70791 | -68.85976 | 36001 ft | 464 kts | 302° |
| 2026-04-25 19:52 | 20.74202 | -68.91806 | 36001 ft | 464 kts | 302° |
| 2026-04-25 19:52 | 20.77611 | -68.97636 | 36001 ft | 464 kts | 302° |
| 2026-04-25 19:53 | 20.81017 | -69.03469 | 36001 ft | 464 kts | 302° |
| 2026-04-25 19:53 | 20.84420 | -69.09304 | 36001 ft | 464 kts | 302° |
| 2026-04-25 19:54 | 20.87811 | -69.15155 | 36001 ft | 464 kts | 302° |
| 2026-04-25 19:54 | 20.91201 | -69.21001 | 36001 ft | 464 kts | 302° |
| 2026-04-25 19:55 | 20.94593 | -69.26846 | 36001 ft | 464 kts | 302° |
| 2026-04-25 19:55 | 20.97989 | -69.32695 | 36001 ft | 464 kts | 302° |
| 2026-04-25 19:56 | 21.01381 | -69.38544 | 36001 ft | 464 kts | 302° |
| 2026-04-25 19:56 | 21.04770 | -69.44391 | 36001 ft | 464 kts | 302° |
| 2026-04-25 19:57 | 21.08166 | -69.50256 | 36001 ft | 464 kts | 302° |
| 2026-04-25 19:57 | 21.11556 | -69.56116 | 36001 ft | 464 kts | 302° |
| 2026-04-25 19:58 | 21.14941 | -69.61974 | 36001 ft | 464 kts | 302° |
| 2026-04-25 19:58 | 21.18325 | -69.67835 | 36001 ft | 464 kts | 302° |
| 2026-04-25 19:59 | 21.21713 | -69.73711 | 36001 ft | 464 kts | 302° |
| 2026-04-25 19:59 | 21.25084 | -69.79596 | 36001 ft | 464 kts | 301° |
| 2026-04-25 20:00 | 21.28458 | -69.85477 | 36001 ft | 464 kts | 301° |
| 2026-04-25 20:00 | 21.31826 | -69.91346 | 36001 ft | 464 kts | 301° |
| 2026-04-25 20:01 | 21.36885 | -70.00164 | 36001 ft | 464 kts | 301° |
| 2026-04-25 20:01 | 21.40255 | -70.06045 | 36001 ft | 464 kts | 301° |
| 2026-04-25 20:02 | 21.43626 | -70.11933 | 36001 ft | 464 kts | 301° |
| 2026-04-25 20:02 | 21.46994 | -70.17822 | 36001 ft | 464 kts | 301° |
| 2026-04-25 20:03 | 21.50367 | -70.23725 | 36001 ft | 464 kts | 301° |
| 2026-04-25 20:03 | 21.53728 | -70.29612 | 36001 ft | 464 kts | 301° |
| 2026-04-25 20:04 | 21.57088 | -70.35507 | 36000 ft | 464 kts | 301° |
| 2026-04-25 20:04 | 21.60448 | -70.41405 | 36001 ft | 464 kts | 301° |
| 2026-04-25 20:05 | 21.63805 | -70.47306 | 36001 ft | 464 kts | 301° |
| 2026-04-25 20:05 | 21.67157 | -70.53205 | 36001 ft | 464 kts | 301° |
| 2026-04-25 20:06 | 21.70506 | -70.59104 | 36001 ft | 464 kts | 301° |
| 2026-04-25 20:06 | 21.73859 | -70.65017 | 36001 ft | 464 kts | 301° |
| 2026-04-25 20:07 | 21.77207 | -70.70926 | 36001 ft | 464 kts | 301° |
| 2026-04-25 20:07 | 21.80553 | -70.76840 | 36001 ft | 464 kts | 301° |
| 2026-04-25 20:08 | 21.83896 | -70.82755 | 36001 ft | 463 kts | 301° |
| 2026-04-25 20:08 | 21.87237 | -70.88672 | 36001 ft | 463 kts | 301° |
| 2026-04-25 20:09 | 21.90573 | -70.94588 | 36001 ft | 464 kts | 301° |
| 2026-04-25 20:09 | 21.93909 | -71.00510 | 36001 ft | 464 kts | 301° |
| 2026-04-25 20:10 | 21.97148 | -71.06265 | 36001 ft | 464 kts | 301° |
| 2026-04-25 20:10 | 22.00509 | -71.12244 | 36001 ft | 464 kts | 301° |
| 2026-04-25 20:11 | 22.03825 | -71.18151 | 36001 ft | 464 kts | 301° |
| 2026-04-25 20:11 | 22.07123 | -71.24029 | 36001 ft | 464 kts | 301° |
| 2026-04-25 20:12 | 22.10442 | -71.29954 | 36001 ft | 464 kts | 301° |
| 2026-04-25 20:12 | 22.13220 | -71.34918 | 36001 ft | 464 kts | 301° |
| 2026-04-25 20:13 | 22.17097 | -71.41853 | 36001 ft | 464 kts | 301° |
| 2026-04-25 20:13 | 22.20409 | -71.47783 | 36001 ft | 464 kts | 301° |
| 2026-04-25 20:14 | 22.23728 | -71.53734 | 36001 ft | 464 kts | 301° |
| 2026-04-25 20:14 | 22.27047 | -71.59691 | 36001 ft | 464 kts | 301° |
| 2026-04-25 20:15 | 22.30358 | -71.65640 | 36001 ft | 464 kts | 301° |
| 2026-04-25 20:15 | 22.33668 | -71.71595 | 36001 ft | 464 kts | 301° |
| 2026-04-25 20:16 | 22.36985 | -71.77569 | 36001 ft | 464 kts | 301° |
| 2026-04-25 20:16 | 22.40291 | -71.83529 | 36001 ft | 464 kts | 301° |
| 2026-04-25 20:17 | 22.43595 | -71.89493 | 36000 ft | 465 kts | 301° |
| 2026-04-25 20:17 | 22.46906 | -71.95477 | 36001 ft | 465 kts | 301° |
| 2026-04-25 20:18 | 22.50212 | -72.01459 | 36001 ft | 465 kts | 301° |
| 2026-04-25 20:18 | 22.53518 | -72.07447 | 36001 ft | 465 kts | 301° |
| 2026-04-25 20:19 | 22.56817 | -72.13428 | 36001 ft | 465 kts | 301° |
| 2026-04-25 20:19 | 22.60117 | -72.19419 | 36001 ft | 465 kts | 301° |
| 2026-04-25 20:20 | 22.63418 | -72.25420 | 36001 ft | 464 kts | 301° |
| 2026-04-25 20:20 | 22.66712 | -72.31413 | 36001 ft | 464 kts | 301° |
| 2026-04-25 20:21 | 22.70004 | -72.37411 | 36001 ft | 464 kts | 301° |
| 2026-04-25 20:21 | 22.73294 | -72.43411 | 36001 ft | 464 kts | 301° |
| 2026-04-25 20:22 | 22.76030 | -72.48406 | 36001 ft | 464 kts | 301° |
| 2026-04-25 20:22 | 22.79862 | -72.55411 | 36001 ft | 464 kts | 301° |
| 2026-04-25 20:23 | 22.83142 | -72.61414 | 36001 ft | 464 kts | 301° |
| 2026-04-25 20:23 | 22.86421 | -72.67422 | 36001 ft | 464 kts | 301° |
| 2026-04-25 20:24 | 22.89703 | -72.73442 | 36001 ft | 465 kts | 300° |
| 2026-04-25 20:24 | 22.92977 | -72.79456 | 36001 ft | 465 kts | 300° |
| 2026-04-25 20:25 | 22.96207 | -72.85413 | 36001 ft | 465 kts | 300° |
| 2026-04-25 20:25 | 22.99351 | -72.91384 | 36001 ft | 465 kts | 300° |
| 2026-04-25 20:26 | 23.02643 | -72.97536 | 36001 ft | 464 kts | 300° |
| 2026-04-25 20:26 | 23.05823 | -73.03440 | 36001 ft | 464 kts | 300° |
| 2026-04-25 20:27 | 23.09084 | -73.09480 | 36001 ft | 464 kts | 300° |
| 2026-04-25 20:27 | 23.12273 | -73.15387 | 36001 ft | 464 kts | 300° |
| 2026-04-25 20:28 | 23.15531 | -73.21425 | 36001 ft | 464 kts | 300° |
| 2026-04-25 20:28 | 23.18786 | -73.27462 | 36001 ft | 464 kts | 300° |
| 2026-04-25 20:29 | 23.22044 | -73.33512 | 36001 ft | 464 kts | 300° |
| 2026-04-25 20:29 | 23.25296 | -73.39556 | 36001 ft | 464 kts | 300° |
| 2026-04-25 20:30 | 23.28545 | -73.45602 | 36001 ft | 464 kts | 300° |
| 2026-04-25 20:30 | 23.31790 | -73.51648 | 36001 ft | 464 kts | 300° |
| 2026-04-25 20:31 | 23.35033 | -73.57699 | 36001 ft | 464 kts | 300° |
| 2026-04-25 20:31 | 23.38278 | -73.63758 | 36001 ft | 464 kts | 300° |
| 2026-04-25 20:32 | 23.41519 | -73.69819 | 36001 ft | 464 kts | 300° |
| 2026-04-25 20:32 | 23.44755 | -73.75879 | 36001 ft | 465 kts | 300° |
| 2026-04-25 20:33 | 23.47995 | -73.81951 | 36001 ft | 465 kts | 300° |
| 2026-04-25 20:33 | 23.50692 | -73.87013 | 36001 ft | 464 kts | 300° |
| 2026-04-25 20:34 | 23.54460 | -73.94093 | 36001 ft | 465 kts | 300° |
| 2026-04-25 20:34 | 23.57669 | -74.00189 | 36001 ft | 464 kts | 300° |
| 2026-04-25 20:35 | 23.60879 | -74.06277 | 36001 ft | 464 kts | 300° |
| 2026-04-25 20:35 | 23.64097 | -74.12365 | 36001 ft | 464 kts | 300° |
| 2026-04-25 20:36 | 23.67318 | -74.18456 | 36001 ft | 464 kts | 300° |
| 2026-04-25 20:36 | 23.70534 | -74.24540 | 36001 ft | 464 kts | 300° |
| 2026-04-25 20:37 | 23.73750 | -74.30631 | 36001 ft | 464 kts | 300° |
| 2026-04-25 20:37 | 23.76964 | -74.36724 | 36001 ft | 464 kts | 300° |
| 2026-04-25 20:38 | 23.80173 | -74.42816 | 36001 ft | 464 kts | 300° |
| 2026-04-25 20:38 | 23.83375 | -74.48901 | 36001 ft | 464 kts | 300° |
| 2026-04-25 20:39 | 23.86581 | -74.55000 | 36001 ft | 464 kts | 300° |
| 2026-04-25 20:39 | 23.89253 | -74.60089 | 36001 ft | 464 kts | 300° |
| 2026-04-25 20:40 | 23.92957 | -74.67155 | 36001 ft | 464 kts | 300° |
| 2026-04-25 20:40 | 23.96023 | -74.73011 | 36001 ft | 464 kts | 300° |
| 2026-04-25 20:41 | 23.99222 | -74.79126 | 36001 ft | 464 kts | 300° |
| 2026-04-25 20:41 | 24.02413 | -74.85236 | 36001 ft | 464 kts | 300° |
| 2026-04-25 20:42 | 24.05610 | -74.91363 | 36001 ft | 464 kts | 300° |
| 2026-04-25 20:42 | 24.08802 | -74.97490 | 36001 ft | 464 kts | 300° |
| 2026-04-25 20:43 | 24.11985 | -75.03607 | 36001 ft | 465 kts | 300° |
| 2026-04-25 20:43 | 24.15177 | -75.09749 | 36001 ft | 465 kts | 300° |
| 2026-04-25 20:44 | 24.18358 | -75.15878 | 36001 ft | 465 kts | 300° |
| 2026-04-25 20:44 | 24.21539 | -75.22013 | 36001 ft | 465 kts | 300° |
| 2026-04-25 20:45 | 24.24723 | -75.28163 | 36001 ft | 464 kts | 299° |
| 2026-04-25 20:45 | 24.27894 | -75.34296 | 36001 ft | 464 kts | 299° |
| 2026-04-25 20:46 | 24.31067 | -75.40441 | 36001 ft | 464 kts | 299° |
| 2026-04-25 20:46 | 24.34245 | -75.46601 | 36001 ft | 464 kts | 299° |
| 2026-04-25 20:47 | 24.37411 | -75.52747 | 36001 ft | 464 kts | 299° |
| 2026-04-25 20:47 | 24.40575 | -75.58898 | 36001 ft | 464 kts | 299° |
| 2026-04-25 20:48 | 24.43731 | -75.65040 | 36001 ft | 464 kts | 299° |
| 2026-04-25 20:48 | 24.46898 | -75.71212 | 36001 ft | 464 kts | 299° |
| 2026-04-25 20:49 | 24.50054 | -75.77372 | 36001 ft | 464 kts | 299° |
| 2026-04-25 20:49 | 24.53206 | -75.83530 | 36001 ft | 464 kts | 299° |
| 2026-04-25 20:50 | 24.56358 | -75.89697 | 36001 ft | 464 kts | 299° |
| 2026-04-25 20:50 | 24.59507 | -75.95865 | 36001 ft | 464 kts | 299° |
| 2026-04-25 20:51 | 24.62653 | -76.02037 | 36001 ft | 464 kts | 299° |
| 2026-04-25 20:51 | 24.65797 | -76.08211 | 36001 ft | 464 kts | 299° |
| 2026-04-25 20:52 | 24.68415 | -76.13359 | 36001 ft | 464 kts | 299° |
| 2026-04-25 20:52 | 24.72013 | -76.20443 | 36001 ft | 464 kts | 299° |
| 2026-04-25 20:53 | 24.75151 | -76.26631 | 36001 ft | 464 kts | 299° |
| 2026-04-25 20:53 | 24.78288 | -76.32825 | 36001 ft | 464 kts | 299° |
| 2026-04-25 20:54 | 24.81421 | -76.39019 | 36001 ft | 465 kts | 299° |
| 2026-04-25 20:54 | 24.84547 | -76.45206 | 36001 ft | 464 kts | 299° |
| 2026-04-25 20:55 | 24.87681 | -76.51418 | 36001 ft | 464 kts | 299° |
| 2026-04-25 20:55 | 24.90799 | -76.57608 | 36001 ft | 464 kts | 299° |
| 2026-04-25 20:56 | 24.93925 | -76.63820 | 36001 ft | 464 kts | 299° |
| 2026-04-25 20:56 | 24.97050 | -76.70039 | 36001 ft | 464 kts | 299° |
| 2026-04-25 20:57 | 25.00166 | -76.76247 | 36001 ft | 464 kts | 299° |
| 2026-04-25 20:57 | 25.03275 | -76.82452 | 36001 ft | 464 kts | 299° |
| 2026-04-25 20:58 | 25.06386 | -76.88667 | 36001 ft | 464 kts | 299° |
| 2026-04-25 20:58 | 25.09499 | -76.94896 | 36001 ft | 464 kts | 298° |
| 2026-04-25 20:59 | 25.12606 | -77.01121 | 36001 ft | 464 kts | 298° |
| 2026-04-25 20:59 | 25.15711 | -77.07348 | 36001 ft | 464 kts | 298° |
| 2026-04-25 21:00 | 25.18296 | -77.12541 | 36001 ft | 464 kts | 298° |
| 2026-04-25 21:01 | 25.23459 | -77.22927 | 36001 ft | 464 kts | 298° |
| 2026-04-25 21:01 | 25.26552 | -77.29163 | 36001 ft | 464 kts | 298° |
| 2026-04-25 21:02 | 25.29425 | -77.35525 | 36003 ft | 464 kts | 294° |
| 2026-04-25 21:02 | 25.31714 | -77.42168 | 36000 ft | 464 kts | 289° |
| 2026-04-25 21:03 | 25.33828 | -77.48899 | 36001 ft | 464 kts | 289° |
| 2026-04-25 21:03 | 25.35979 | -77.55603 | 36001 ft | 464 kts | 289° |
| 2026-04-25 21:04 | 25.38144 | -77.62310 | 36001 ft | 464 kts | 289° |
| 2026-04-25 21:04 | 25.40311 | -77.69011 | 36001 ft | 464 kts | 289° |
| 2026-04-25 21:05 | 25.42400 | -77.75741 | 36001 ft | 464 kts | 287° |
| 2026-04-25 21:05 | 25.44252 | -77.82570 | 36001 ft | 464 kts | 286° |
| 2026-04-25 21:06 | 25.46011 | -77.89427 | 36001 ft | 464 kts | 285° |
| 2026-04-25 21:06 | 25.47738 | -77.96295 | 36001 ft | 464 kts | 285° |
| 2026-04-25 21:07 | 25.49459 | -78.03161 | 36001 ft | 464 kts | 285° |
| 2026-04-25 21:07 | 25.51177 | -78.10032 | 36001 ft | 464 kts | 285° |
| 2026-04-25 21:08 | 25.52894 | -78.16911 | 36001 ft | 464 kts | 285° |
| 2026-04-25 21:08 | 25.54605 | -78.23783 | 36001 ft | 464 kts | 285° |
| 2026-04-25 21:09 | 25.57166 | -78.34100 | 36001 ft | 464 kts | 285° |
| 2026-04-25 21:09 | 25.58870 | -78.40984 | 36001 ft | 464 kts | 285° |
| 2026-04-25 21:10 | 25.60569 | -78.47858 | 36001 ft | 464 kts | 285° |
| 2026-04-25 21:10 | 25.62200 | -78.54473 | 36001 ft | 464 kts | 285° |
| 2026-04-25 21:11 | 25.63896 | -78.61367 | 36001 ft | 464 kts | 285° |
| 2026-04-25 21:11 | 25.65580 | -78.68227 | 36001 ft | 464 kts | 285° |
| 2026-04-25 21:12 | 25.67273 | -78.75141 | 36001 ft | 464 kts | 285° |
| 2026-04-25 21:12 | 25.68677 | -78.80882 | 36001 ft | 464 kts | 285° |
| 2026-04-25 21:13 | 25.70638 | -78.88921 | 36001 ft | 464 kts | 285° |
| 2026-04-25 21:13 | 25.72314 | -78.95811 | 36001 ft | 464 kts | 285° |
| 2026-04-25 21:14 | 25.73987 | -79.02703 | 36001 ft | 464 kts | 285° |
| 2026-04-25 21:14 | 25.75659 | -79.09606 | 36001 ft | 464 kts | 285° |
| 2026-04-25 21:15 | 25.77328 | -79.16507 | 36001 ft | 464 kts | 285° |
| 2026-04-25 21:15 | 25.78992 | -79.23409 | 36001 ft | 464 kts | 285° |
| 2026-04-25 21:16 | 25.80653 | -79.30311 | 36001 ft | 464 kts | 285° |
| 2026-04-25 21:16 | 25.82309 | -79.37209 | 36001 ft | 464 kts | 285° |
| 2026-04-25 21:17 | 25.83961 | -79.44106 | 35964 ft | 465 kts | 285° |
| 2026-04-25 21:17 | 25.84793 | -79.47583 | 35742 ft | 465 kts | 285° |
| 2026-04-25 21:17 | 25.85619 | -79.51043 | 35495 ft | 465 kts | 285° |
| 2026-04-25 21:18 | 25.86446 | -79.54506 | 35251 ft | 465 kts | 285° |
| 2026-04-25 21:18 | 25.87270 | -79.57967 | 35005 ft | 466 kts | 285° |
| 2026-04-25 21:18 | 25.88097 | -79.61437 | 34743 ft | 467 kts | 285° |
| 2026-04-25 21:18 | 25.88923 | -79.64912 | 34423 ft | 467 kts | 285° |
| 2026-04-25 21:19 | 25.89750 | -79.68393 | 34105 ft | 468 kts | 285° |
| 2026-04-25 21:19 | 25.90576 | -79.71877 | 33787 ft | 469 kts | 284° |
| 2026-04-25 21:19 | 25.91423 | -79.75368 | 33467 ft | 469 kts | 286° |
| 2026-04-25 21:19 | 25.92450 | -79.78797 | 33136 ft | 470 kts | 291° |
| 2026-04-25 21:20 | 25.93779 | -79.82109 | 32827 ft | 470 kts | 296° |
| 2026-04-25 21:20 | 25.94727 | -79.84195 | 32623 ft | 471 kts | 297° |
| 2026-04-25 21:20 | 25.96856 | -79.88421 | 32197 ft | 472 kts | 301° |
| 2026-04-25 21:20 | 25.98630 | -79.91476 | 31916 ft | 472 kts | 304° |
| 2026-04-25 21:21 | 26.00451 | -79.94503 | 31673 ft | 473 kts | 303° |
| 2026-04-25 21:21 | 26.02254 | -79.97552 | 31428 ft | 473 kts | 303° |
| 2026-04-25 21:21 | 26.04038 | -80.00630 | 31182 ft | 474 kts | 302° |
| 2026-04-25 21:21 | 26.05796 | -80.03714 | 30937 ft | 474 kts | 302° |
| 2026-04-25 21:22 | 26.07542 | -80.06819 | 30691 ft | 475 kts | 302° |
| 2026-04-25 21:22 | 26.09276 | -80.09919 | 30446 ft | 475 kts | 302° |
| 2026-04-25 21:22 | 26.11024 | -80.13047 | 30200 ft | 476 kts | 302° |
| 2026-04-25 21:22 | 26.12806 | -80.16131 | 30001 ft | 476 kts | 306° |
| 2026-04-25 21:23 | 26.15063 | -80.18798 | 29989 ft | 476 kts | 320° |
| 2026-04-25 21:23 | 26.17781 | -80.20880 | 30000 ft | 476 kts | 328° |
| 2026-04-25 21:23 | 26.23557 | -80.24458 | 30003 ft | 476 kts | 333° |
| 2026-04-25 21:24 | 26.29596 | -80.27425 | 30001 ft | 476 kts | 339° |
| 2026-04-25 21:24 | 26.35775 | -80.30018 | 30001 ft | 476 kts | 339° |
| 2026-04-25 21:25 | 26.41819 | -80.32692 | 30001 ft | 476 kts | 338° |
| 2026-04-25 21:25 | 26.47927 | -80.35496 | 30000 ft | 476 kts | 337° |
| 2026-04-25 21:26 | 26.54023 | -80.38317 | 30001 ft | 476 kts | 337° |
| 2026-04-25 21:26 | 26.60122 | -80.41145 | 30001 ft | 476 kts | 337° |
| 2026-04-25 21:27 | 26.66222 | -80.43976 | 30001 ft | 476 kts | 337° |
| 2026-04-25 21:27 | 26.72308 | -80.46805 | 30001 ft | 476 kts | 337° |
| 2026-04-25 21:28 | 26.78398 | -80.49639 | 30001 ft | 475 kts | 337° |
| 2026-04-25 21:28 | 26.84500 | -80.52482 | 30001 ft | 476 kts | 337° |
| 2026-04-25 21:29 | 26.90590 | -80.55323 | 30000 ft | 476 kts | 337° |
| 2026-04-25 21:29 | 26.96688 | -80.58171 | 30001 ft | 476 kts | 337° |
| 2026-04-25 21:30 | 27.02788 | -80.61023 | 30000 ft | 476 kts | 337° |
| 2026-04-25 21:30 | 27.07860 | -80.63397 | 30001 ft | 476 kts | 337° |
| 2026-04-25 21:31 | 27.14979 | -80.66733 | 29971 ft | 476 kts | 337° |
| 2026-04-25 21:31 | 27.18031 | -80.68165 | 30152 ft | 476 kts | 337° |
| 2026-04-25 21:31 | 27.21075 | -80.69594 | 30290 ft | 476 kts | 337° |
| 2026-04-25 21:32 | 27.24120 | -80.71024 | 29855 ft | 476 kts | 337° |
| 2026-04-25 21:32 | 27.27138 | -80.72442 | 29453 ft | 468 kts | 337° |
| 2026-04-25 21:32 | 27.30114 | -80.73841 | 29146 ft | 459 kts | 337° |
| 2026-04-25 21:32 | 27.33073 | -80.75233 | 28765 ft | 465 kts | 337° |
| 2026-04-25 21:33 | 27.36056 | -80.76637 | 28112 ft | 465 kts | 337° |
| 2026-04-25 21:33 | 27.39034 | -80.78040 | 27376 ft | 465 kts | 337° |
| 2026-04-25 21:33 | 27.42003 | -80.79439 | 26692 ft | 463 kts | 337° |
| 2026-04-25 21:33 | 27.42142 | -80.79505 | 26661 ft | 463 kts | 337° |
| 2026-04-25 21:34 | 27.53658 | -80.84940 | 24114 ft | 453 kts | 337° |
| 2026-04-25 21:34 | 27.56542 | -80.86303 | 23351 ft | 446 kts | 337° |
| 2026-04-25 21:35 | 27.59359 | -80.87635 | 22648 ft | 432 kts | 337° |
| 2026-04-25 21:35 | 27.62068 | -80.88917 | 22246 ft | 417 kts | 337° |
| 2026-04-25 21:35 | 27.64723 | -80.90174 | 21786 ft | 416 kts | 337° |
| 2026-04-25 21:35 | 27.67397 | -80.91440 | 21118 ft | 419 kts | 337° |
| 2026-04-25 21:36 | 27.70071 | -80.92708 | 20403 ft | 416 kts | 337° |
| 2026-04-25 21:36 | 27.72709 | -80.93959 | 19805 ft | 409 kts | 337° |
| 2026-04-25 21:36 | 27.75300 | -80.95188 | 19260 ft | 400 kts | 337° |
| 2026-04-25 21:36 | 27.77852 | -80.96399 | 18722 ft | 401 kts | 337° |
| 2026-04-25 21:37 | 27.80412 | -80.97615 | 18121 ft | 398 kts | 337° |
| 2026-04-25 21:37 | 27.82105 | -80.98419 | 17723 ft | 395 kts | 337° |
| 2026-04-25 21:37 | 27.85442 | -81.00006 | 16950 ft | 391 kts | 337° |
| 2026-04-25 21:37 | 27.87945 | -81.01196 | 16368 ft | 388 kts | 337° |
| 2026-04-25 21:38 | 27.90412 | -81.02368 | 15792 ft | 384 kts | 337° |
| 2026-04-25 21:38 | 27.92858 | -81.03487 | 15217 ft | 381 kts | 338° |
| 2026-04-25 21:38 | 27.95329 | -81.04586 | 14639 ft | 378 kts | 339° |
| 2026-04-25 21:38 | 27.97764 | -81.05646 | 14067 ft | 375 kts | 339° |
| 2026-04-25 21:39 | 28.00187 | -81.06686 | 13494 ft | 371 kts | 339° |
| 2026-04-25 21:39 | 28.02586 | -81.07712 | 12922 ft | 368 kts | 339° |
| 2026-04-25 21:39 | 28.04966 | -81.08727 | 12368 ft | 364 kts | 339° |
| 2026-04-25 21:39 | 28.07293 | -81.09733 | 12016 ft | 352 kts | 339° |
| 2026-04-25 21:40 | 28.09526 | -81.10713 | 11732 ft | 338 kts | 339° |
| 2026-04-25 21:40 | 28.11673 | -81.11656 | 11439 ft | 325 kts | 339° |
| 2026-04-25 21:40 | 28.13733 | -81.12562 | 11151 ft | 313 kts | 339° |
| 2026-04-25 21:40 | 28.15719 | -81.13435 | 10888 ft | 302 kts | 339° |
| 2026-04-25 21:41 | 28.17645 | -81.14282 | 10671 ft | 292 kts | 339° |
| 2026-04-25 21:41 | 28.19511 | -81.15103 | 10445 ft | 285 kts | 339° |
| 2026-04-25 21:41 | 28.21337 | -81.15907 | 10232 ft | 278 kts | 339° |
| 2026-04-25 21:41 | 28.23119 | -81.16692 | 10037 ft | 273 kts | 339° |
| 2026-04-25 21:42 | 28.24890 | -81.17473 | 9739 ft | 276 kts | 339° |
| 2026-04-25 21:42 | 28.26704 | -81.18153 | 9392 ft | 275 kts | 348° |
| 2026-04-25 21:42 | 28.28593 | -81.18405 | 9166 ft | 274 kts | 356° |
| 2026-04-25 21:42 | 28.30484 | -81.18488 | 8904 ft | 273 kts | 358° |
| 2026-04-25 21:43 | 28.32383 | -81.18544 | 8603 ft | 272 kts | 358° |
| 2026-04-25 21:43 | 28.34234 | -81.18595 | 8382 ft | 260 kts | 359° |
| 2026-04-25 21:43 | 28.35982 | -81.18639 | 8212 ft | 245 kts | 359° |
| 2026-04-25 21:43 | 28.37648 | -81.18680 | 8080 ft | 239 kts | 359° |
| 2026-04-25 21:44 | 28.39338 | -81.18709 | 7929 ft | 247 kts | 359° |
| 2026-04-25 21:44 | 28.41062 | -81.18731 | 7672 ft | 247 kts | 359° |
| 2026-04-25 21:44 | 28.44478 | -81.18771 | 7002 ft | 247 kts | 359° |
| 2026-04-25 21:45 | 28.46196 | -81.18789 | 6448 ft | 247 kts | 359° |
| 2026-04-25 21:45 | 28.47330 | -81.18801 | 6117 ft | 246 kts | 359° |
| 2026-04-25 21:45 | 28.49591 | -81.18823 | 5455 ft | 243 kts | 359° |
| 2026-04-25 21:45 | 28.51258 | -81.18839 | 5257 ft | 234 kts | 359° |
| 2026-04-25 21:46 | 28.52903 | -81.18855 | 5722 ft | 238 kts | 359° |
| 2026-04-25 21:46 | 28.54564 | -81.18902 | 5765 ft | 242 kts | 355° |
| 2026-04-25 21:46 | 28.56123 | -81.19585 | 5060 ft | 244 kts | 323° |
| 2026-04-25 21:46 | 28.57108 | -81.21096 | 4567 ft | 238 kts | 291° |
| 2026-04-25 21:47 | 28.57352 | -81.22937 | 4137 ft | 234 kts | 272° |
| 2026-04-25 21:47 | 28.56985 | -81.24695 | 3589 ft | 231 kts | 241° |
| 2026-04-25 21:47 | 28.55851 | -81.25903 | 3140 ft | 221 kts | 208° |
| 2026-04-25 21:47 | 28.54429 | -81.26439 | 2738 ft | 213 kts | 194° |
| 2026-04-25 21:48 | 28.53002 | -81.26817 | 2249 ft | 211 kts | 197° |
| 2026-04-25 21:48 | 28.51745 | -81.27640 | 1806 ft | 205 kts | 212° |
| 2026-04-25 21:48 | 28.50444 | -81.28113 | 1504 ft | 192 kts | 191° |
| 2026-04-25 21:48 | 28.49203 | -81.28579 | 1046 ft | 186 kts | 202° |
| 2026-04-25 21:49 | 28.48070 | -81.29149 | 819 ft | 171 kts | 204° |
| 2026-04-25 21:49 | 28.47031 | -81.29563 | 664 ft | 146 kts | 195° |
| 2026-04-25 21:49 | 28.46066 | -81.29614 | 523 ft | 138 kts | 180° |
| 2026-04-25 21:49 | 28.45105 | -81.29610 | 385 ft | 139 kts | 179° |
| 2026-04-25 21:50 | 28.44145 | -81.29600 | 224 ft | 138 kts | 179° |
| 2026-04-25 21:50 | 28.43198 | -81.29586 | 115 ft | 134 kts | 179° |
| 2026-04-25 21:50 | 28.42414 | -81.29577 | 107 ft | 80 kts | 179° |
| 2026-04-25 21:50 | 28.42146 | -81.29574 | 107 ft | 45 kts | 180° |
| 2026-04-25 21:51 | 28.41833 | -81.29585 | 107 ft | 16 kts | 216° |
| 2026-04-25 21:51 | 28.41804 | -81.29638 | 107 ft | 0 kts | 237° |
| 2026-04-25 21:53 | 28.41804 | -81.29639 | 107 ft | 0 kts | 237° |
| 2026-04-25 21:54 | 28.41803 | -81.29639 | 107 ft | 0 kts | 237° |
| 2026-04-25 21:55 | 28.41803 | -81.29640 | 107 ft | 0 kts | 237° |
| 2026-04-25 21:56 | 28.41796 | -81.29653 | 107 ft | 6 kts | 238° |
| 2026-04-25 21:56 | 28.41785 | -81.29686 | 107 ft | 2 kts | 255° |
| 2026-04-25 21:56 | 28.41768 | -81.29712 | 107 ft | 8 kts | 227° |
| 2026-04-25 21:56 | 28.41732 | -81.29762 | 107 ft | 8 kts | 236° |
| 2026-04-25 21:57 | 28.41738 | -81.29807 | 107 ft | 6 kts | 328° |
| 2026-04-25 21:57 | 28.41780 | -81.29814 | 107 ft | 7 kts | 358° |
| 2026-04-25 21:57 | 28.41828 | -81.29815 | 107 ft | 7 kts | 359° |
| 2026-04-25 21:57 | 28.41883 | -81.29816 | 107 ft | 8 kts | 359° |
| 2026-04-25 21:58 | 28.41943 | -81.29817 | 107 ft | 9 kts | 359° |
| 2026-04-25 21:58 | 28.42007 | -81.29818 | 107 ft | 9 kts | 359° |
| 2026-04-25 21:58 | 28.42069 | -81.29819 | 107 ft | 9 kts | 359° |
| 2026-04-25 21:58 | 28.42129 | -81.29820 | 107 ft | 9 kts | 359° |
| 2026-04-25 21:59 | 28.42189 | -81.29821 | 107 ft | 8 kts | 359° |
| 2026-04-25 21:59 | 28.42247 | -81.29822 | 107 ft | 8 kts | 359° |
| 2026-04-25 21:59 | 28.42304 | -81.29823 | 107 ft | 8 kts | 359° |
| 2026-04-25 22:00 | 28.42414 | -81.29825 | 107 ft | 8 kts | 359° |
| 2026-04-25 22:00 | 28.42467 | -81.29826 | 107 ft | 8 kts | 358° |
| 2026-04-25 22:00 | 28.42520 | -81.29828 | 107 ft | 7 kts | 359° |
| 2026-04-25 22:00 | 28.42571 | -81.29829 | 107 ft | 7 kts | 359° |
| 2026-04-25 22:01 | 28.42619 | -81.29836 | 107 ft | 7 kts | 332° |
| 2026-04-25 22:01 | 28.42632 | -81.29874 | 107 ft | 5 kts | 270° |
| 2026-04-25 22:01 | 28.42632 | -81.29915 | 107 ft | 5 kts | 272° |
| 2026-04-25 22:01 | 28.42641 | -81.29936 | 107 ft | 4 kts | 316° |
| 2026-04-25 22:02 | 28.42668 | -81.29964 | 107 ft | 4 kts | 296° |
| 2026-04-25 22:02 | 28.42673 | -81.29991 | 107 ft | 3 kts | 273° |
| 2026-04-25 22:02 | 28.42673 | -81.30018 | 107 ft | 3 kts | 267° |
| 2026-04-25 22:02 | 28.42672 | -81.30044 | 107 ft | 3 kts | 268° |
| 2026-04-25 22:03 | 28.42671 | -81.30069 | 107 ft | 3 kts | 269° |
| 2026-04-25 22:03 | 28.42671 | -81.30072 | 107 ft | 0 kts | 269° |
| 2026-04-25 22:03 | 28.42671 | -81.30073 | 107 ft | 0 kts | 269° |
| 2026-04-25 22:04 | 28.42671 | -81.30074 | 107 ft | 0 kts | 269° |